Pierson, FL

6:33 PM EST on February 10, 2016 (GMT -0500)
FL_Meso | | Change Station
CLOSE
Current Station
Personal Weather Station
Location: Pierson, FL
Elevation: 54 ft
Nearby Weather Stations
Active Advisory: Freeze Warning

Elev 54 ft 29.22 °N, 81.46 °W | Updated 33 minutes ago

Clear
Clear
52.0 °F
Feels Like 52.0 °F
N
3.0
Wind Variable Wind from West
Gusts 0.0 mph

Today
High -- | Low -- °F
--% Chance of Precip.
Yesterday
High -- | Low -- °F
Precip. -- in
Pressure 30.17 in
Visibility 10.0 miles
Clouds Clear
Dew Point 20.0 °F
Humidity 28%
Rainfall in
Snow Depth Not available.
7:09 AM 6:11 PM
Waxing Crescent, 8% visible
METAR KOMN 102250Z 27010KT 10SM SKC 12/M09 A3017
Pressure 30.17 in
Visibility 10.0 miles
Clouds Clear
Dew Point 20.0 °F
Humidity 28%
Rainfall in
Snow Depth Not available.
7:09 AM 6:11 PM
Waxing Crescent, 8% visible
METAR KOMN 102250Z 27010KT 10SM SKC 12/M09 A3017

10-Day Weather Forecast

Almanac

Astronomy

Feb. 10, 2016 Rise Set
Actual Time
Civil Twilight
Nautical Twilight
Astronomical Twilight
Moon
Length of Visible Light
Length of Day
Tomorrow will be .
, % of the Moon is Illuminated

Today's Extremes

State Highs State Lows

Community

WunderPhotos

Upload Photos

1,891,935 photos uploaded!

WunderBlog® & News

Nearby

Air Quality

  Air Quality AQ Index Pollutant
Not available.

Snow Depth

Station Depth Elevation

Earthquake Activity

City Distance Mag. Time & Date
Minimum magnitude displayed is 2.5.

Coastal Water Temperatures

Place Temperature

Stations

Nearby Weather Stations

Station Location Temp. Windchill Dew Point Humidity Wind Precip. Elev Updated Type
                   

Watches & Warnings

Freeze Warning
Issued: 2:14 PM EST Feb. 10, 2016 – National Weather Service

... Lake Wind Advisory remains in effect until 6 PM EST this
evening...
... Freeze warning in effect from 3 am to 9 am EST Thursday...

The National Weather Service in Melbourne has issued a freeze
warning... which is in effect from 3 am to 9 am EST Thursday.

* Winds... increasing to 20 mph out of the west to northwest with
gusts to around 30 mph.

* Temperature... lows 29 to 32 degrees early Thursday morning.
Freeze durations of 2 to 4 hours are expected.

* Impacts... strong winds this afternoon will create choppy
conditions on Open Lakes and other larger bodies of water making
operation of small boats potentially hazardous.

Appropriate action should be taken to ensure tender vegetation
and outdoor pets have adequate protection from the cold
temperatures tonight.

Precautionary/preparedness actions...

A lake Wind Advisory indicates that winds will cause rough chop
on area lakes. Small boats will be especially prone to capsizing.

A freeze warning means sub-freezing temperatures are imminent or
highly likely. These conditions will kill crops and other
sensitive vegetation.